sensor_id;sensor_type;location;lat;lon;timestamp;pressure;altitude;pressure_sealevel;temperature;humidity
75895;BME280;64573;50.328;15.014;2023-03-01T00:00:11;100087.22;;;-6.22;92.00
75895;BME280;64573;50.328;15.014;2023-03-01T00:02:37;100083.25;;;-6.07;92.18
75895;BME280;64573;50.328;15.014;2023-03-01T00:05:03;100086.34;;;-5.96;92.14
75895;BME280;64573;50.328;15.014;2023-03-01T00:07:28;100087.56;;;-5.82;91.77
75895;BME280;64573;50.328;15.014;2023-03-01T00:09:54;100090.78;;;-5.98;91.98
75895;BME280;64573;50.328;15.014;2023-03-01T00:12:20;100079.28;;;-5.94;92.37
75895;BME280;64573;50.328;15.014;2023-03-01T00:14:45;100078.13;;;-5.86;91.36
75895;BME280;64573;50.328;15.014;2023-03-01T00:17:10;100071.06;;;-6.08;92.64
75895;BME280;64573;50.328;15.014;2023-03-01T00:19:36;100070.16;;;-6.34;91.69
75895;BME280;64573;50.328;15.014;2023-03-01T00:22:01;100074.25;;;-6.53;92.32
75895;BME280;64573;50.328;15.014;2023-03-01T00:24:26;100076.34;;;-6.64;91.94
75895;BME280;64573;50.328;15.014;2023-03-01T00:26:53;100075.63;;;-6.42;92.79
75895;BME280;64573;50.328;15.014;2023-03-01T00:29:21;100074.91;;;-6.47;91.96
75895;BME280;64573;50.328;15.014;2023-03-01T00:31:46;100074.22;;;-6.52;92.07
75895;BME280;64573;50.328;15.014;2023-03-01T00:34:11;100074.41;;;-6.58;92.84
75895;BME280;64573;50.328;15.014;2023-03-01T00:36:37;100071.81;;;-6.59;93.44
75895;BME280;64573;50.328;15.014;2023-03-01T00:39:04;100070.16;;;-6.62;92.78
75895;BME280;64573;50.328;15.014;2023-03-01T00:41:30;100063.28;;;-6.64;92.46
75895;BME280;64573;50.328;15.014;2023-03-01T00:43:56;100061.78;;;-6.72;93.17
75895;BME280;64573;50.328;15.014;2023-03-01T00:46:24;100061.16;;;-6.80;92.58
75895;BME280;64573;50.328;15.014;2023-03-01T00:48:50;100055.28;;;-6.86;92.91
75895;BME280;64573;50.328;15.014;2023-03-01T00:51:19;100045.00;;;-6.92;93.02
75895;BME280;64573;50.328;15.014;2023-03-01T00:53:46;100052.97;;;-6.97;93.45
75895;BME280;64573;50.328;15.014;2023-03-01T00:56:13;100043.38;;;-6.97;93.84
75895;BME280;64573;50.328;15.014;2023-03-01T00:58:39;100046.19;;;-6.75;93.18
75895;BME280;64573;50.328;15.014;2023-03-01T01:01:13;100054.25;;;-6.82;93.56
75895;BME280;64573;50.328;15.014;2023-03-01T01:04:03;100054.00;;;-6.73;93.67
75895;BME280;64573;50.328;15.014;2023-03-01T01:06:34;100052.69;;;-6.60;93.18
75895;BME280;64573;50.328;15.014;2023-03-01T01:09:01;100052.13;;;-6.42;93.99
75895;BME280;64573;50.328;15.014;2023-03-01T01:11:28;100055.34;;;-6.61;93.66
75895;BME280;64573;50.328;15.014;2023-03-01T01:13:55;100054.38;;;-6.57;93.99
75895;BME280;64573;50.328;15.014;2023-03-01T01:16:22;100046.88;;;-6.68;94.21
75895;BME280;64573;50.328;15.014;2023-03-01T01:18:48;100049.47;;;-6.40;94.54
75895;BME280;64573;50.328;15.014;2023-03-01T01:21:17;100059.78;;;-6.35;93.87
75895;BME280;64573;50.328;15.014;2023-03-01T01:23:44;100046.97;;;-6.43;93.47
75895;BME280;64573;50.328;15.014;2023-03-01T01:26:13;100053.41;;;-6.27;93.89
75895;BME280;64573;50.328;15.014;2023-03-01T01:28:39;100065.06;;;-6.39;94.52
75895;BME280;64573;50.328;15.014;2023-03-01T01:31:05;100049.88;;;-6.26;94.84
75895;BME280;64573;50.328;15.014;2023-03-01T01:33:31;100047.34;;;-6.01;93.97
75895;BME280;64573;50.328;15.014;2023-03-01T01:35:56;100052.31;;;-5.93;94.02
75895;BME280;64573;50.328;15.014;2023-03-01T01:38:21;100040.34;;;-6.00;94.36
75895;BME280;64573;50.328;15.014;2023-03-01T01:40:48;100037.28;;;-5.88;93.96
75895;BME280;64573;50.328;15.014;2023-03-01T01:43:25;100038.00;;;-6.08;93.13
75895;BME280;64573;50.328;15.014;2023-03-01T01:45:56;100038.22;;;-6.42;93.55
75895;BME280;64573;50.328;15.014;2023-03-01T01:48:24;100038.81;;;-6.60;93.16
75895;BME280;64573;50.328;15.014;2023-03-01T01:50:57;100037.69;;;-6.81;93.01
75895;BME280;64573;50.328;15.014;2023-03-01T01:53:24;100040.09;;;-7.02;93.94
75895;BME280;64573;50.328;15.014;2023-03-01T01:55:54;100033.22;;;-7.06;93.89
75895;BME280;64573;50.328;15.014;2023-03-01T01:58:24;100027.41;;;-7.14;94.36
75895;BME280;64573;50.328;15.014;2023-03-01T02:00:51;100024.91;;;-7.18;93.89
75895;BME280;64573;50.328;15.014;2023-03-01T02:03:20;100026.72;;;-7.20;94.05
75895;BME280;64573;50.328;15.014;2023-03-01T02:08:18;100018.28;;;-7.29;93.85
75895;BME280;64573;50.328;15.014;2023-03-01T02:10:45;100017.25;;;-7.23;94.73
75895;BME280;64573;50.328;15.014;2023-03-01T02:13:11;100010.28;;;-7.23;94.62
75895;BME280;64573;50.328;15.014;2023-03-01T02:15:38;100003.94;;;-7.14;94.87
75895;BME280;64573;50.328;15.014;2023-03-01T02:18:05;100005.75;;;-7.17;95.02
75895;BME280;64573;50.328;15.014;2023-03-01T02:22:57;100008.59;;;-7.25;93.87
75895;BME280;64573;50.328;15.014;2023-03-01T02:30:46;100008.88;;;-6.77;95.03
75895;BME280;64573;50.328;15.014;2023-03-01T02:33:33;100004.38;;;-6.45;94.72
75895;BME280;64573;50.328;15.014;2023-03-01T02:36:09;100000.06;;;-6.73;94.12
75895;BME280;64573;50.328;15.014;2023-03-01T02:38:36;100006.97;;;-7.00;94.92
75895;BME280;64573;50.328;15.014;2023-03-01T02:41:03;100006.72;;;-7.20;94.35
75895;BME280;64573;50.328;15.014;2023-03-01T02:43:32;100010.94;;;-7.45;94.15
75895;BME280;64573;50.328;15.014;2023-03-01T02:46:05;100007.88;;;-7.61;93.70
75895;BME280;64573;50.328;15.014;2023-03-01T02:48:52;100000.16;;;-7.64;94.38
75895;BME280;64573;50.328;15.014;2023-03-01T02:51:54;99984.84;;;-7.44;94.07
75895;BME280;64573;50.328;15.014;2023-03-01T02:54:31;99995.78;;;-7.33;94.18
75895;BME280;64573;50.328;15.014;2023-03-01T02:56:59;99994.34;;;-7.43;94.66
75895;BME280;64573;50.328;15.014;2023-03-01T02:59:28;100004.00;;;-7.46;95.11
75895;BME280;64573;50.328;15.014;2023-03-01T03:01:54;100008.56;;;-7.53;94.84
75895;BME280;64573;50.328;15.014;2023-03-01T03:04:20;100004.31;;;-7.57;94.85
75895;BME280;64573;50.328;15.014;2023-03-01T03:06:47;100015.09;;;-7.38;95.14
75895;BME280;64573;50.328;15.014;2023-03-01T03:09:14;100006.47;;;-7.42;94.37
75895;BME280;64573;50.328;15.014;2023-03-01T03:11:40;100009.81;;;-7.37;95.11
75895;BME280;64573;50.328;15.014;2023-03-01T03:14:12;100000.47;;;-7.44;94.27
75895;BME280;64573;50.328;15.014;2023-03-01T03:16:48;99997.94;;;-7.47;95.02
75895;BME280;64573;50.328;15.014;2023-03-01T03:19:14;99994.78;;;-7.58;94.79
75895;BME280;64573;50.328;15.014;2023-03-01T03:21:40;99992.41;;;-7.66;94.79
75895;BME280;64573;50.328;15.014;2023-03-01T03:24:05;99983.94;;;-7.74;94.67
75895;BME280;64573;50.328;15.014;2023-03-01T03:26:31;99979.66;;;-7.77;94.53
75895;BME280;64573;50.328;15.014;2023-03-01T03:28:57;99977.84;;;-7.73;94.37
75895;BME280;64573;50.328;15.014;2023-03-01T03:31:23;99978.09;;;-7.51;94.84
75895;BME280;64573;50.328;15.014;2023-03-01T03:33:48;99971.09;;;-7.49;94.61
75895;BME280;64573;50.328;15.014;2023-03-01T03:36:18;99975.34;;;-7.46;94.50
75895;BME280;64573;50.328;15.014;2023-03-01T03:38:45;99966.09;;;-7.57;94.71
75895;BME280;64573;50.328;15.014;2023-03-01T03:41:11;99959.56;;;-7.71;94.50
75895;BME280;64573;50.328;15.014;2023-03-01T03:43:39;99956.97;;;-7.71;94.77
75895;BME280;64573;50.328;15.014;2023-03-01T03:46:05;99957.06;;;-7.74;94.90
75895;BME280;64573;50.328;15.014;2023-03-01T03:48:33;99961.78;;;-7.89;94.19
75895;BME280;64573;50.328;15.014;2023-03-01T03:50:59;99957.66;;;-7.96;94.39
75895;BME280;64573;50.328;15.014;2023-03-01T03:53:26;99964.50;;;-7.93;94.85
75895;BME280;64573;50.328;15.014;2023-03-01T03:55:52;99953.94;;;-7.87;95.19
75895;BME280;64573;50.328;15.014;2023-03-01T03:58:19;99965.00;;;-7.79;94.71
75895;BME280;64573;50.328;15.014;2023-03-01T04:00:46;99949.47;;;-7.84;93.90
75895;BME280;64573;50.328;15.014;2023-03-01T04:03:13;99953.94;;;-7.87;94.62
75895;BME280;64573;50.328;15.014;2023-03-01T04:05:40;99961.09;;;-7.95;94.66
75895;BME280;64573;50.328;15.014;2023-03-01T04:08:06;99948.16;;;-7.98;94.25
75895;BME280;64573;50.328;15.014;2023-03-01T04:13:03;99965.47;;;-7.96;94.28
75895;BME280;64573;50.328;15.014;2023-03-01T04:15:28;99956.81;;;-7.96;94.24
75895;BME280;64573;50.328;15.014;2023-03-01T04:17:54;99960.25;;;-7.96;94.81
75895;BME280;64573;50.328;15.014;2023-03-01T04:20:23;99959.94;;;-7.85;94.56
75895;BME280;64573;50.328;15.014;2023-03-01T04:22:56;99962.72;;;-7.91;94.08
75895;BME280;64573;50.328;15.014;2023-03-01T04:25:23;99959.31;;;-7.93;94.22
75895;BME280;64573;50.328;15.014;2023-03-01T04:27:48;99968.88;;;-7.94;94.66
75895;BME280;64573;50.328;15.014;2023-03-01T04:30:14;99967.22;;;-7.98;94.04
75895;BME280;64573;50.328;15.014;2023-03-01T04:32:40;99967.91;;;-7.91;94.24
75895;BME280;64573;50.328;15.014;2023-03-01T04:35:05;99971.69;;;-7.70;94.31
75895;BME280;64573;50.328;15.014;2023-03-01T04:37:30;99967.22;;;-7.65;94.89
75895;BME280;64573;50.328;15.014;2023-03-01T04:39:56;99975.06;;;-7.67;94.96
75895;BME280;64573;50.328;15.014;2023-03-01T04:42:21;99976.84;;;-7.69;94.85
75895;BME280;64573;50.328;15.014;2023-03-01T04:44:46;99964.78;;;-7.71;94.81
75895;BME280;64573;50.328;15.014;2023-03-01T04:47:12;99970.09;;;-7.76;94.34
75895;BME280;64573;50.328;15.014;2023-03-01T04:49:37;99976.59;;;-7.91;94.86
75895;BME280;64573;50.328;15.014;2023-03-01T04:52:03;99974.19;;;-7.98;94.25
75895;BME280;64573;50.328;15.014;2023-03-01T04:54:30;99967.91;;;-7.91;94.18
75895;BME280;64573;50.328;15.014;2023-03-01T04:56:56;99965.31;;;-7.91;94.61
75895;BME280;64573;50.328;15.014;2023-03-01T04:59:21;99969.50;;;-7.86;93.81
75895;BME280;64573;50.328;15.014;2023-03-01T05:01:48;99960.63;;;-7.79;94.74
75895;BME280;64573;50.328;15.014;2023-03-01T05:04:14;99959.44;;;-7.67;94.12
75895;BME280;64573;50.328;15.014;2023-03-01T05:06:39;99967.63;;;-7.81;94.61
75895;BME280;64573;50.328;15.014;2023-03-01T05:09:04;99964.41;;;-7.90;94.17
75895;BME280;64573;50.328;15.014;2023-03-01T05:11:30;99965.28;;;-7.90;94.25
75895;BME280;64573;50.328;15.014;2023-03-01T05:13:59;99968.50;;;-7.80;94.01
75895;BME280;64573;50.328;15.014;2023-03-01T05:16:24;99974.13;;;-7.64;94.49
75895;BME280;64573;50.328;15.014;2023-03-01T05:18:49;99963.00;;;-7.40;93.78
75895;BME280;64573;50.328;15.014;2023-03-01T05:21:16;99967.56;;;-7.18;94.41
75895;BME280;64573;50.328;15.014;2023-03-01T05:23:42;99969.09;;;-7.41;94.14
75895;BME280;64573;50.328;15.014;2023-03-01T05:26:08;99964.69;;;-7.39;93.97
75895;BME280;64573;50.328;15.014;2023-03-01T05:28:34;99966.38;;;-7.36;94.02
75895;BME280;64573;50.328;15.014;2023-03-01T05:30:59;99964.91;;;-7.45;94.18
75895;BME280;64573;50.328;15.014;2023-03-01T05:33:26;99968.75;;;-7.29;94.02
75895;BME280;64573;50.328;15.014;2023-03-01T05:35:52;99974.03;;;-7.02;94.73
75895;BME280;64573;50.328;15.014;2023-03-01T05:38:18;99974.00;;;-7.01;94.21
75895;BME280;64573;50.328;15.014;2023-03-01T05:40:47;99973.50;;;-7.13;94.49
75895;BME280;64573;50.328;15.014;2023-03-01T05:43:14;99973.56;;;-7.15;94.70
75895;BME280;64573;50.328;15.014;2023-03-01T05:45:40;99970.09;;;-7.15;94.06
75895;BME280;64573;50.328;15.014;2023-03-01T05:48:07;99971.59;;;-7.36;93.89
75895;BME280;64573;50.328;15.014;2023-03-01T05:50:36;99965.88;;;-7.49;94.22
75895;BME280;64573;50.328;15.014;2023-03-01T05:53:04;99976.63;;;-7.61;93.89
75895;BME280;64573;50.328;15.014;2023-03-01T05:55:31;99982.00;;;-7.66;94.12
75895;BME280;64573;50.328;15.014;2023-03-01T05:58:05;99982.69;;;-7.61;93.36
75895;BME280;64573;50.328;15.014;2023-03-01T06:00:31;99991.25;;;-7.56;94.05
75895;BME280;64573;50.328;15.014;2023-03-01T06:02:58;99988.28;;;-7.43;94.20
75895;BME280;64573;50.328;15.014;2023-03-01T06:05:24;99990.63;;;-7.34;93.93
75895;BME280;64573;50.328;15.014;2023-03-01T06:07:49;99986.16;;;-7.29;93.45
75895;BME280;64573;50.328;15.014;2023-03-01T06:10:16;99982.75;;;-7.31;93.97
75895;BME280;64573;50.328;15.014;2023-03-01T06:12:42;99978.22;;;-7.26;93.50
75895;BME280;64573;50.328;15.014;2023-03-01T06:15:10;99983.59;;;-7.03;92.59
75895;BME280;64573;50.328;15.014;2023-03-01T06:17:38;99987.88;;;-6.72;93.15
75895;BME280;64573;50.328;15.014;2023-03-01T06:20:05;99986.78;;;-6.39;92.07
75895;BME280;64573;50.328;15.014;2023-03-01T06:22:30;99993.59;;;-6.08;92.39
75895;BME280;64573;50.328;15.014;2023-03-01T06:24:56;99985.34;;;-5.72;92.44
75895;BME280;64573;50.328;15.014;2023-03-01T06:27:21;99991.00;;;-5.36;91.85
75895;BME280;64573;50.328;15.014;2023-03-01T06:29:47;99983.78;;;-5.06;92.36
75895;BME280;64573;50.328;15.014;2023-03-01T06:32:12;99987.75;;;-4.96;90.80
75895;BME280;64573;50.328;15.014;2023-03-01T06:34:37;99980.06;;;-4.79;90.82
75895;BME280;64573;50.328;15.014;2023-03-01T06:37:03;99983.19;;;-4.69;89.83
75895;BME280;64573;50.328;15.014;2023-03-01T06:39:31;99991.22;;;-4.52;89.48
75895;BME280;64573;50.328;15.014;2023-03-01T06:41:56;99983.50;;;-4.55;89.21
75895;BME280;64573;50.328;15.014;2023-03-01T06:44:21;99991.03;;;-4.47;88.90
75895;BME280;64573;50.328;15.014;2023-03-01T06:46:47;99985.25;;;-4.33;89.29
75895;BME280;64573;50.328;15.014;2023-03-01T06:49:12;99985.50;;;-4.39;88.86
75895;BME280;64573;50.328;15.014;2023-03-01T06:51:38;99980.31;;;-4.21;89.20
75895;BME280;64573;50.328;15.014;2023-03-01T06:54:04;99977.47;;;-4.14;89.46
75895;BME280;64573;50.328;15.014;2023-03-01T06:56:30;99976.53;;;-4.13;89.09
75895;BME280;64573;50.328;15.014;2023-03-01T06:58:56;99985.34;;;-3.94;89.34
75895;BME280;64573;50.328;15.014;2023-03-01T07:01:21;99981.78;;;-3.73;88.72
75895;BME280;64573;50.328;15.014;2023-03-01T07:03:46;99976.50;;;-3.32;88.47
75895;BME280;64573;50.328;15.014;2023-03-01T07:06:12;99981.81;;;-3.15;87.33
75895;BME280;64573;50.328;15.014;2023-03-01T07:08:37;99983.00;;;-2.65;87.67
75895;BME280;64573;50.328;15.014;2023-03-01T07:11:03;99978.81;;;-2.16;86.86
75895;BME280;64573;50.328;15.014;2023-03-01T07:13:29;99973.75;;;-1.69;85.90
75895;BME280;64573;50.328;15.014;2023-03-01T07:15:54;99972.50;;;-1.61;84.20
75895;BME280;64573;50.328;15.014;2023-03-01T07:18:20;99977.63;;;-1.09;83.54
75895;BME280;64573;50.328;15.014;2023-03-01T07:20:45;99978.00;;;-1.00;81.82
75895;BME280;64573;50.328;15.014;2023-03-01T07:23:10;99977.81;;;-0.97;81.48
75895;BME280;64573;50.328;15.014;2023-03-01T07:25:36;99978.50;;;-0.62;79.00
75895;BME280;64573;50.328;15.014;2023-03-01T07:28:01;99964.84;;;-0.38;78.73
75895;BME280;64573;50.328;15.014;2023-03-01T07:30:26;99958.31;;;-0.47;78.89
75895;BME280;64573;50.328;15.014;2023-03-01T07:32:54;99973.31;;;-0.17;77.15
75895;BME280;64573;50.328;15.014;2023-03-01T07:35:20;99970.75;;;-0.80;77.87
75895;BME280;64573;50.328;15.014;2023-03-01T07:37:46;99971.44;;;-0.93;78.98
75895;BME280;64573;50.328;15.014;2023-03-01T07:40:12;99971.03;;;-0.85;78.74
75895;BME280;64573;50.328;15.014;2023-03-01T07:42:37;99976.09;;;-0.66;78.98
75895;BME280;64573;50.328;15.014;2023-03-01T07:45:04;99980.13;;;-0.29;77.80
75895;BME280;64573;50.328;15.014;2023-03-01T07:47:30;99974.91;;;-0.15;76.96
75895;BME280;64573;50.328;15.014;2023-03-01T07:49:56;99975.63;;;0.03;75.91
75895;BME280;64573;50.328;15.014;2023-03-01T07:52:21;99966.53;;;0.09;74.93
75895;BME280;64573;50.328;15.014;2023-03-01T07:54:47;99971.53;;;0.27;74.04
75895;BME280;64573;50.328;15.014;2023-03-01T07:57:12;99960.84;;;0.59;73.03
75895;BME280;64573;50.328;15.014;2023-03-01T07:59:37;99964.38;;;0.15;73.95
75895;BME280;64573;50.328;15.014;2023-03-01T08:02:03;99962.91;;;-0.05;73.48
75895;BME280;64573;50.328;15.014;2023-03-01T08:04:28;99958.00;;;0.48;72.82
75895;BME280;64573;50.328;15.014;2023-03-01T08:06:55;99956.50;;;0.30;72.63
75895;BME280;64573;50.328;15.014;2023-03-01T08:09:20;99947.16;;;0.24;71.29
75895;BME280;64573;50.328;15.014;2023-03-01T08:11:46;99947.91;;;0.69;71.17
75895;BME280;64573;50.328;15.014;2023-03-01T08:14:11;99954.31;;;0.65;68.26
75895;BME280;64573;50.328;15.014;2023-03-01T08:16:37;99947.88;;;1.38;65.01
75895;BME280;64573;50.328;15.014;2023-03-01T08:19:06;99947.97;;;1.64;62.08
75895;BME280;64573;50.328;15.014;2023-03-01T08:21:32;99945.13;;;1.67;62.02
75895;BME280;64573;50.328;15.014;2023-03-01T08:24:03;99938.22;;;1.25;60.44
75895;BME280;64573;50.328;15.014;2023-03-01T08:26:29;99934.97;;;1.34;61.16
75895;BME280;64573;50.328;15.014;2023-03-01T08:28:54;99939.81;;;1.54;59.95
75895;BME280;64573;50.328;15.014;2023-03-01T08:31:21;99936.38;;;1.79;61.71
75895;BME280;64573;50.328;15.014;2023-03-01T08:33:48;99927.47;;;1.68;62.87
75895;BME280;64573;50.328;15.014;2023-03-01T08:36:17;99921.25;;;1.69;62.11
75895;BME280;64573;50.328;15.014;2023-03-01T08:38:43;99918.41;;;1.84;60.08
75895;BME280;64573;50.328;15.014;2023-03-01T08:41:08;99920.25;;;1.97;59.67
75895;BME280;64573;50.328;15.014;2023-03-01T08:43:34;99924.38;;;2.26;58.29
75895;BME280;64573;50.328;15.014;2023-03-01T08:45:59;99920.66;;;2.16;60.53
75895;BME280;64573;50.328;15.014;2023-03-01T08:48:25;99928.72;;;2.27;59.79
75895;BME280;64573;50.328;15.014;2023-03-01T08:50:50;99919.72;;;2.55;57.51
75895;BME280;64573;50.328;15.014;2023-03-01T08:53:16;99920.03;;;2.51;57.95
75895;BME280;64573;50.328;15.014;2023-03-01T08:55:41;99918.50;;;2.85;56.46
75895;BME280;64573;50.328;15.014;2023-03-01T08:58:06;99912.25;;;3.22;55.14
75895;BME280;64573;50.328;15.014;2023-03-01T09:00:32;99913.72;;;3.50;54.49
75895;BME280;64573;50.328;15.014;2023-03-01T09:03:00;99907.13;;;3.32;52.40
75895;BME280;64573;50.328;15.014;2023-03-01T09:05:25;99905.41;;;4.48;49.95
75895;BME280;64573;50.328;15.014;2023-03-01T09:07:50;99900.06;;;4.92;48.77
75895;BME280;64573;50.328;15.014;2023-03-01T09:10:16;99899.44;;;5.66;46.90
75895;BME280;64573;50.328;15.014;2023-03-01T09:12:41;99892.38;;;4.78;48.99
75895;BME280;64573;50.328;15.014;2023-03-01T09:15:07;99891.47;;;5.54;47.33
75895;BME280;64573;50.328;15.014;2023-03-01T09:17:32;99895.19;;;3.97;49.23
75895;BME280;64573;50.328;15.014;2023-03-01T09:19:58;99890.00;;;3.95;51.12
75895;BME280;64573;50.328;15.014;2023-03-01T09:22:24;99887.22;;;3.50;52.89
75895;BME280;64573;50.328;15.014;2023-03-01T09:24:50;99890.63;;;5.11;49.20
75895;BME280;64573;50.328;15.014;2023-03-01T09:27:16;99886.78;;;5.04;47.79
75895;BME280;64573;50.328;15.014;2023-03-01T09:29:44;99883.28;;;6.20;45.70
75895;BME280;64573;50.328;15.014;2023-03-01T09:32:09;99884.94;;;7.03;45.15
75895;BME280;64573;50.328;15.014;2023-03-01T09:34:35;99875.28;;;7.99;41.75
75895;BME280;64573;50.328;15.014;2023-03-01T09:37:20;99876.00;;;7.53;41.21
75895;BME280;64573;50.328;15.014;2023-03-01T09:39:46;99881.78;;;7.77;40.44
75895;BME280;64573;50.328;15.014;2023-03-01T09:42:12;99876.56;;;7.66;40.63
75895;BME280;64573;50.328;15.014;2023-03-01T09:44:47;99876.94;;;8.10;39.29
75895;BME280;64573;50.328;15.014;2023-03-01T09:47:21;99876.81;;;7.24;42.79
75895;BME280;64573;50.328;15.014;2023-03-01T09:54:57;99864.06;;;6.38;47.53
75895;BME280;64573;50.328;15.014;2023-03-01T10:00:07;99863.34;;;5.09;48.36
75895;BME280;64573;50.328;15.014;2023-03-01T10:02:41;99868.94;;;6.63;45.94
75895;BME280;64573;50.328;15.014;2023-03-01T10:10:33;99857.53;;;5.47;48.22
75895;BME280;64573;50.328;15.014;2023-03-01T10:13:05;99861.31;;;5.65;47.08
75895;BME280;64573;50.328;15.014;2023-03-01T10:15:41;99860.88;;;6.84;45.12
75895;BME280;64573;50.328;15.014;2023-03-01T10:18:21;99858.44;;;7.60;44.36
75895;BME280;64573;50.328;15.014;2023-03-01T10:20:56;99853.34;;;8.05;42.99
75895;BME280;64573;50.328;15.014;2023-03-01T10:23:24;99862.66;;;7.33;43.08
75895;BME280;64573;50.328;15.014;2023-03-01T10:31:20;99858.81;;;8.03;42.81
75895;BME280;64573;50.328;15.014;2023-03-01T10:33:47;99848.84;;;8.06;43.40
75895;BME280;64573;50.328;15.014;2023-03-01T10:36:16;99843.47;;;8.15;42.56
75895;BME280;64573;50.328;15.014;2023-03-01T10:38:56;99847.16;;;8.05;42.71
75895;BME280;64573;50.328;15.014;2023-03-01T10:41:25;99848.31;;;9.04;42.05
75895;BME280;64573;50.328;15.014;2023-03-01T10:43:54;99850.75;;;8.97;41.66
75895;BME280;64573;50.328;15.014;2023-03-01T10:46:37;99850.91;;;8.21;41.57
75895;BME280;64573;50.328;15.014;2023-03-01T10:51:35;99839.78;;;8.36;40.73
75895;BME280;64573;50.328;15.014;2023-03-01T10:54:02;99833.63;;;8.16;38.44
75895;BME280;64573;50.328;15.014;2023-03-01T10:56:27;99824.69;;;7.97;39.61
75895;BME280;64573;50.328;15.014;2023-03-01T11:06:31;99811.84;;;8.57;37.56
75895;BME280;64573;50.328;15.014;2023-03-01T11:08:56;99808.91;;;9.59;36.58
75895;BME280;64573;50.328;15.014;2023-03-01T11:13:55;99803.47;;;10.47;33.86
75895;BME280;64573;50.328;15.014;2023-03-01T11:18:56;99792.00;;;10.71;34.69
75895;BME280;64573;50.328;15.014;2023-03-01T11:21:21;99797.44;;;9.49;35.27
75895;BME280;64573;50.328;15.014;2023-03-01T11:23:47;99798.16;;;8.23;37.14
75895;BME280;64573;50.328;15.014;2023-03-01T11:26:13;99789.03;;;9.44;37.27
75895;BME280;64573;50.328;15.014;2023-03-01T11:28:41;99782.06;;;9.77;35.59
75895;BME280;64573;50.328;15.014;2023-03-01T11:31:11;99780.84;;;10.49;35.78
75895;BME280;64573;50.328;15.014;2023-03-01T11:33:48;99781.19;;;10.97;34.51
75895;BME280;64573;50.328;15.014;2023-03-01T11:38:40;99766.66;;;11.48;33.50
75895;BME280;64573;50.328;15.014;2023-03-01T11:43:49;99767.81;;;10.63;35.71
75895;BME280;64573;50.328;15.014;2023-03-01T11:49:01;99763.13;;;11.31;34.04
75895;BME280;64573;50.328;15.014;2023-03-01T11:56:57;99759.91;;;11.03;35.91
75895;BME280;64573;50.328;15.014;2023-03-01T12:13:16;99738.69;;;7.84;38.56
75895;BME280;64573;50.328;15.014;2023-03-01T12:18:25;99736.84;;;10.26;35.91
75895;BME280;64573;50.328;15.014;2023-03-01T12:26:48;99724.16;;;11.03;33.40
75895;BME280;64573;50.328;15.014;2023-03-01T12:39:19;99716.19;;;8.51;37.98
75895;BME280;64573;50.328;15.014;2023-03-01T12:51:51;99702.63;;;8.80;38.70
75895;BME280;64573;50.328;15.014;2023-03-01T12:54:31;99708.25;;;8.32;39.84
75895;BME280;64573;50.328;15.014;2023-03-01T13:11:59;99680.75;;;8.22;39.69
75895;BME280;64573;50.328;15.014;2023-03-01T13:21:47;99683.31;;;7.30;42.56
75895;BME280;64573;50.328;15.014;2023-03-01T13:29:27;99678.94;;;7.38;39.91
75895;BME280;64573;50.328;15.014;2023-03-01T13:31:56;99675.56;;;7.46;40.24
75895;BME280;64573;50.328;15.014;2023-03-01T13:35:06;99677.38;;;7.45;40.41
75895;BME280;64573;50.328;15.014;2023-03-01T13:37:48;99668.47;;;7.08;42.63
75895;BME280;64573;50.328;15.014;2023-03-01T13:42:45;99664.47;;;7.31;42.50
75895;BME280;64573;50.328;15.014;2023-03-01T13:45:37;99661.63;;;7.89;42.37
75895;BME280;64573;50.328;15.014;2023-03-01T13:48:22;99652.44;;;7.27;41.60
75895;BME280;64573;50.328;15.014;2023-03-01T13:50:53;99649.19;;;7.24;40.37
75895;BME280;64573;50.328;15.014;2023-03-01T13:53:22;99646.31;;;7.91;37.43
75895;BME280;64573;50.328;15.014;2023-03-01T14:03:19;99651.16;;;8.06;38.46
75895;BME280;64573;50.328;15.014;2023-03-01T14:18:53;99642.00;;;7.81;36.02
75895;BME280;64573;50.328;15.014;2023-03-01T14:23:56;99631.03;;;8.11;36.49
75895;BME280;64573;50.328;15.014;2023-03-01T14:26:23;99632.09;;;8.81;35.37
75895;BME280;64573;50.328;15.014;2023-03-01T14:28:49;99627.28;;;8.49;36.19
75895;BME280;64573;50.328;15.014;2023-03-01T14:31:37;99628.22;;;8.30;38.47
75895;BME280;64573;50.328;15.014;2023-03-01T14:34:04;99627.25;;;9.03;35.12
75895;BME280;64573;50.328;15.014;2023-03-01T14:41:33;99622.41;;;8.17;36.07
75895;BME280;64573;50.328;15.014;2023-03-01T14:44:05;99622.47;;;8.08;37.24
75895;BME280;64573;50.328;15.014;2023-03-01T14:46:35;99626.03;;;8.26;36.89
75895;BME280;64573;50.328;15.014;2023-03-01T14:49:14;99628.72;;;8.44;36.54
75895;BME280;64573;50.328;15.014;2023-03-01T14:51:42;99621.03;;;8.31;36.37
75895;BME280;64573;50.328;15.014;2023-03-01T14:54:21;99616.00;;;7.83;37.98
75895;BME280;64573;50.328;15.014;2023-03-01T14:56:50;99629.47;;;8.09;37.74
75895;BME280;64573;50.328;15.014;2023-03-01T14:59:21;99627.47;;;7.93;38.56
75895;BME280;64573;50.328;15.014;2023-03-01T15:01:47;99612.28;;;7.93;37.12
75895;BME280;64573;50.328;15.014;2023-03-01T15:04:13;99614.03;;;7.85;37.89
75895;BME280;64573;50.328;15.014;2023-03-01T15:06:39;99611.09;;;7.78;40.37
75895;BME280;64573;50.328;15.014;2023-03-01T15:09:05;99610.22;;;9.30;36.35
75895;BME280;64573;50.328;15.014;2023-03-01T15:11:32;99603.81;;;8.61;35.87
75895;BME280;64573;50.328;15.014;2023-03-01T15:16:26;99613.47;;;9.42;35.55
75895;BME280;64573;50.328;15.014;2023-03-01T15:18:55;99609.66;;;9.78;34.62
75895;BME280;64573;50.328;15.014;2023-03-01T15:29:15;99610.16;;;8.60;37.82
75895;BME280;64573;50.328;15.014;2023-03-01T15:31:42;99608.06;;;8.90;37.36
75895;BME280;64573;50.328;15.014;2023-03-01T15:41:47;99613.97;;;8.75;37.13
75895;BME280;64573;50.328;15.014;2023-03-01T15:44:30;99616.09;;;8.90;36.42
75895;BME280;64573;50.328;15.014;2023-03-01T15:46:56;99608.84;;;8.82;36.59
75895;BME280;64573;50.328;15.014;2023-03-01T15:49:38;99609.19;;;8.79;36.79
75895;BME280;64573;50.328;15.014;2023-03-01T15:52:10;99614.94;;;8.21;37.89
75895;BME280;64573;50.328;15.014;2023-03-01T15:54:39;99630.78;;;8.05;38.52